Etusivu
METAR-TAF:

METAR-TAF

Lentoasemat :

Alpnach, Sveitsi

Leveyspiiri: 46-56-19N, Pituuspiiri: 8-17-03E, korkeus merenpinnasta: 440 m

Tämänhetkinen sää

Tämä raportti tehtiin 18 minuuttia sitten, kello 16.20 UTC
Tuuli 4 kn lounaasta
Lämpötila 10°C
Kosteus 71%
Ilmanpaine 1028 hPa
Näkyvyys: 9000 m

METAR: LSMA 221620Z AUTO 22004KT 9000NDV NCD 10/05 Q1028 RMK

Aika: 18:38 (16:38 UTC)


TAF: puuttuu

Säähavainnot ja -ennusteet yli 4000 lentoasemalta (METAR- ja TAF-raportit).

Käytössä olevat sääasemat on merkitty karttaan keltaisilla ja punaisilla pisteillä.

Aseta hiiri pisteen päälle nähdäksesi sääaseman nimen.

Klikkaa sitten nähdäksesi säähavainnot ja -ennusteet.

Kartan vaihtaminen: klikkaa mustalla rastilla varustettuja vihreitä pisteitä, niin voit zoomata sisään; viivalla varustettua vihreää pistettä, niin voit zoomata ulos tai vihreitä nuolia, niin pääset viereisille kartoille.


METAR-TAF: